sensor_id;sensor_type;location;lat;lon;timestamp;pressure;altitude;pressure_sealevel;temperature;humidity
12775;BME280;6451;42.630;23.382;2022-11-24T00:01:02;93368.97;;;7.02;100.00
12775;BME280;6451;42.630;23.382;2022-11-24T00:03:30;93380.72;;;6.94;100.00
12775;BME280;6451;42.630;23.382;2022-11-24T00:06:02;93389.69;;;6.98;100.00
12775;BME280;6451;42.630;23.382;2022-11-24T00:08:30;93378.81;;;6.94;100.00
12775;BME280;6451;42.630;23.382;2022-11-24T00:11:02;93382.66;;;7.09;100.00
12775;BME280;6451;42.630;23.382;2022-11-24T00:13:31;93366.69;;;6.88;100.00
12775;BME280;6451;42.630;23.382;2022-11-24T00:16:07;93374.63;;;6.97;100.00
12775;BME280;6451;42.630;23.382;2022-11-24T00:18:34;93379.41;;;7.04;100.00
12775;BME280;6451;42.630;23.382;2022-11-24T00:21:01;93382.66;;;7.09;100.00
12775;BME280;6451;42.630;23.382;2022-11-24T00:23:28;93388.13;;;7.13;100.00
12775;BME280;6451;42.630;23.382;2022-11-24T00:26:02;93355.13;;;6.88;100.00
12775;BME280;6451;42.630;23.382;2022-11-24T00:28:33;93373.34;;;6.91;100.00
12775;BME280;6451;42.630;23.382;2022-11-24T00:31:00;93369.75;;;6.87;100.00
12775;BME280;6451;42.630;23.382;2022-11-24T00:33:27;93384.81;;;7.04;100.00
12775;BME280;6451;42.630;23.382;2022-11-24T00:35:55;93398.75;;;7.06;100.00
12775;BME280;6451;42.630;23.382;2022-11-24T00:38:24;93379.16;;;6.93;100.00
12775;BME280;6451;42.630;23.382;2022-11-24T00:40:52;93399.44;;;7.03;100.00
12775;BME280;6451;42.630;23.382;2022-11-24T00:43:19;93317.28;;;6.53;100.00
12775;BME280;6451;42.630;23.382;2022-11-24T00:45:47;93356.88;;;6.80;100.00
12775;BME280;6451;42.630;23.382;2022-11-24T00:48:14;93404.09;;;6.90;100.00
12775;BME280;6451;42.630;23.382;2022-11-24T00:50:41;93394.38;;;6.85;100.00
12775;BME280;6451;42.630;23.382;2022-11-24T00:53:09;93412.72;;;6.95;100.00
12775;BME280;6451;42.630;23.382;2022-11-24T00:55:39;93416.75;;;7.02;100.00
12775;BME280;6451;42.630;23.382;2022-11-24T00:58:06;93268.44;;;6.10;100.00
12775;BME280;6451;42.630;23.382;2022-11-24T01:00:34;93198.63;;;5.62;100.00
12775;BME280;6451;42.630;23.382;2022-11-24T01:03:03;93235.94;;;5.75;100.00
12775;BME280;6451;42.630;23.382;2022-11-24T01:05:30;93407.34;;;6.95;100.00
12775;BME280;6451;42.630;23.382;2022-11-24T01:08:00;93417.78;;;6.97;100.00
12775;BME280;6451;42.630;23.382;2022-11-24T01:10:28;93244.97;;;5.83;100.00
12775;BME280;6451;42.630;23.382;2022-11-24T01:12:56;93377.03;;;6.71;100.00
12775;BME280;6451;42.630;23.382;2022-11-24T01:15:23;93240.34;;;5.55;100.00
12775;BME280;6451;42.630;23.382;2022-11-24T01:17:51;93327.81;;;6.02;100.00
12775;BME280;6451;42.630;23.382;2022-11-24T01:20:20;93410.31;;;6.62;100.00
12775;BME280;6451;42.630;23.382;2022-11-24T01:22:49;93322.09;;;6.03;100.00
12775;BME280;6451;42.630;23.382;2022-11-24T01:25:16;93404.66;;;6.52;100.00
12775;BME280;6451;42.630;23.382;2022-11-24T01:27:43;93305.75;;;5.84;100.00
12775;BME280;6451;42.630;23.382;2022-11-24T01:30:13;93235.97;;;5.23;100.00
12775;BME280;6451;42.630;23.382;2022-11-24T01:32:41;93282.28;;;5.56;100.00
12775;BME280;6451;42.630;23.382;2022-11-24T01:35:09;93121.50;;;4.57;100.00
12775;BME280;6451;42.630;23.382;2022-11-24T01:37:37;93245.38;;;5.17;100.00
12775;BME280;6451;42.630;23.382;2022-11-24T01:40:07;93127.44;;;4.63;100.00
12775;BME280;6451;42.630;23.382;2022-11-24T01:42:47;93291.75;;;5.78;100.00
12775;BME280;6451;42.630;23.382;2022-11-24T01:45:34;93415.06;;;6.53;100.00
12775;BME280;6451;42.630;23.382;2022-11-24T01:48:07;93240.38;;;5.43;100.00
12775;BME280;6451;42.630;23.382;2022-11-24T01:50:38;93308.44;;;5.96;100.00
12775;BME280;6451;42.630;23.382;2022-11-24T01:53:08;93419.72;;;6.68;100.00
12775;BME280;6451;42.630;23.382;2022-11-24T01:55:40;93211.63;;;5.32;100.00
12775;BME280;6451;42.630;23.382;2022-11-24T01:58:11;93230.88;;;5.46;100.00
12775;BME280;6451;42.630;23.382;2022-11-24T02:00:42;93347.28;;;6.23;100.00
12775;BME280;6451;42.630;23.382;2022-11-24T02:03:11;93296.31;;;5.90;100.00
12775;BME280;6451;42.630;23.382;2022-11-24T02:05:43;93413.78;;;6.63;100.00
12775;BME280;6451;42.630;23.382;2022-11-24T02:08:19;93335.81;;;5.98;100.00
12775;BME280;6451;42.630;23.382;2022-11-24T02:10:47;93222.75;;;5.18;100.00
12775;BME280;6451;42.630;23.382;2022-11-24T02:13:14;93197.34;;;5.03;100.00
12775;BME280;6451;42.630;23.382;2022-11-24T02:15:42;93395.88;;;6.55;100.00
12775;BME280;6451;42.630;23.382;2022-11-24T02:18:09;93284.47;;;5.79;100.00
12775;BME280;6451;42.630;23.382;2022-11-24T02:20:37;93405.59;;;6.59;100.00
12775;BME280;6451;42.630;23.382;2022-11-24T02:23:10;93178.03;;;5.13;100.00
12775;BME280;6451;42.630;23.382;2022-11-24T02:25:51;93327.81;;;6.02;100.00
12775;BME280;6451;42.630;23.382;2022-11-24T02:28:22;93173.84;;;5.00;100.00
12775;BME280;6451;42.630;23.382;2022-11-24T02:30:53;93239.56;;;5.15;100.00
12775;BME280;6451;42.630;23.382;2022-11-24T02:33:21;93090.00;;;4.17;100.00
12775;BME280;6451;42.630;23.382;2022-11-24T02:35:50;93295.53;;;5.49;100.00
12775;BME280;6451;42.630;23.382;2022-11-24T02:38:17;93228.53;;;5.32;100.00
12775;BME280;6451;42.630;23.382;2022-11-24T02:40:46;93314.63;;;5.84;100.00
12775;BME280;6451;42.630;23.382;2022-11-24T02:43:16;93424.75;;;6.42;100.00
12775;BME280;6451;42.630;23.382;2022-11-24T02:45:47;93429.94;;;6.35;100.00
12775;BME280;6451;42.630;23.382;2022-11-24T02:48:16;93427.38;;;6.38;100.00
12775;BME280;6451;42.630;23.382;2022-11-24T02:50:43;93400.16;;;6.16;100.00
12775;BME280;6451;42.630;23.382;2022-11-24T02:53:11;93366.00;;;5.92;100.00
12775;BME280;6451;42.630;23.382;2022-11-24T02:55:38;93431.41;;;6.32;100.00
12775;BME280;6451;42.630;23.382;2022-11-24T02:58:05;93412.69;;;6.24;100.00
12775;BME280;6451;42.630;23.382;2022-11-24T03:00:32;93266.84;;;5.29;100.00
12775;BME280;6451;42.630;23.382;2022-11-24T03:03:01;93419.75;;;6.28;100.00
12775;BME280;6451;42.630;23.382;2022-11-24T03:05:29;93426.41;;;6.19;100.00
12775;BME280;6451;42.630;23.382;2022-11-24T03:07:56;93203.53;;;4.79;100.00
12775;BME280;6451;42.630;23.382;2022-11-24T03:10:23;93439.19;;;6.22;100.00
12775;BME280;6451;42.630;23.382;2022-11-24T03:12:51;93429.84;;;6.31;100.00
12775;BME280;6451;42.630;23.382;2022-11-24T03:15:19;93192.13;;;4.70;100.00
12775;BME280;6451;42.630;23.382;2022-11-24T03:17:46;93274.41;;;5.23;100.00
12775;BME280;6451;42.630;23.382;2022-11-24T03:20:15;93439.53;;;6.20;100.00
12775;BME280;6451;42.630;23.382;2022-11-24T03:22:43;93372.81;;;5.89;100.00
12775;BME280;6451;42.630;23.382;2022-11-24T03:25:10;93353.22;;;5.64;100.00
12775;BME280;6451;42.630;23.382;2022-11-24T03:27:37;93176.00;;;4.58;100.00
12775;BME280;6451;42.630;23.382;2022-11-24T03:30:06;93408.91;;;6.12;100.00
12775;BME280;6451;42.630;23.382;2022-11-24T03:32:33;93413.00;;;5.94;100.00
12775;BME280;6451;42.630;23.382;2022-11-24T03:35:00;93369.38;;;5.64;100.00
12775;BME280;6451;42.630;23.382;2022-11-24T03:37:32;93408.94;;;5.88;100.00
12775;BME280;6451;42.630;23.382;2022-11-24T03:39:59;93467.72;;;6.10;100.00
12775;BME280;6451;42.630;23.382;2022-11-24T03:42:27;93453.34;;;6.19;100.00
12775;BME280;6451;42.630;23.382;2022-11-24T03:44:54;93469.84;;;6.17;100.00
12775;BME280;6451;42.630;23.382;2022-11-24T03:47:22;93460.75;;;6.09;100.00
12775;BME280;6451;42.630;23.382;2022-11-24T03:49:49;93467.16;;;6.17;100.00
12775;BME280;6451;42.630;23.382;2022-11-24T03:52:16;93408.28;;;5.79;100.00
12775;BME280;6451;42.630;23.382;2022-11-24T03:54:45;93315.16;;;5.25;100.00
12775;BME280;6451;42.630;23.382;2022-11-24T03:57:12;93460.97;;;6.17;100.00
12775;BME280;6451;42.630;23.382;2022-11-24T03:59:39;93474.75;;;6.27;100.00
12775;BME280;6451;42.630;23.382;2022-11-24T04:02:06;93195.03;;;4.40;100.00
12775;BME280;6451;42.630;23.382;2022-11-24T04:04:33;93488.66;;;6.41;100.00
12775;BME280;6451;42.630;23.382;2022-11-24T04:07:00;93389.66;;;5.98;100.00
12775;BME280;6451;42.630;23.382;2022-11-24T04:09:27;93322.75;;;5.60;100.00
12775;BME280;6451;42.630;23.382;2022-11-24T04:11:56;93484.78;;;6.55;100.00
12775;BME280;6451;42.630;23.382;2022-11-24T04:14:41;93481.31;;;6.54;100.00
12775;BME280;6451;42.630;23.382;2022-11-24T04:17:08;93478.47;;;6.63;100.00
12775;BME280;6451;42.630;23.382;2022-11-24T04:19:35;93490.75;;;6.60;100.00
12775;BME280;6451;42.630;23.382;2022-11-24T04:22:02;93336.38;;;5.79;100.00
12775;BME280;6451;42.630;23.382;2022-11-24T04:24:29;93267.59;;;5.14;100.00
12775;BME280;6451;42.630;23.382;2022-11-24T04:26:58;93499.25;;;6.62;100.00
12775;BME280;6451;42.630;23.382;2022-11-24T04:29:25;93373.06;;;5.72;100.00
12775;BME280;6451;42.630;23.382;2022-11-24T04:31:53;93302.84;;;5.24;100.00
12775;BME280;6451;42.630;23.382;2022-11-24T04:34:20;93517.69;;;6.60;100.00
12775;BME280;6451;42.630;23.382;2022-11-24T04:39:25;93513.59;;;6.79;100.00
12775;BME280;6451;42.630;23.382;2022-11-24T04:41:52;93512.44;;;6.92;100.00
12775;BME280;6451;42.630;23.382;2022-11-24T04:44:21;93347.72;;;5.73;100.00
12775;BME280;6451;42.630;23.382;2022-11-24T04:46:48;93514.97;;;7.01;100.00
12775;BME280;6451;42.630;23.382;2022-11-24T04:49:16;93346.91;;;5.97;100.00
12775;BME280;6451;42.630;23.382;2022-11-24T04:51:44;93512.31;;;7.16;100.00
12775;BME280;6451;42.630;23.382;2022-11-24T04:54:12;93479.94;;;6.88;100.00
12775;BME280;6451;42.630;23.382;2022-11-24T04:56:40;93517.28;;;7.14;100.00
12775;BME280;6451;42.630;23.382;2022-11-24T04:59:11;93472.59;;;7.01;100.00
12775;BME280;6451;42.630;23.382;2022-11-24T05:01:40;93515.59;;;7.38;100.00
12775;BME280;6451;42.630;23.382;2022-11-24T05:04:09;93488.31;;;7.27;100.00
12775;BME280;6451;42.630;23.382;2022-11-24T05:06:36;93466.06;;;7.02;100.00
12775;BME280;6451;42.630;23.382;2022-11-24T05:09:04;93512.63;;;7.43;100.00
12775;BME280;6451;42.630;23.382;2022-11-24T05:11:32;93418.41;;;6.90;100.00
12775;BME280;6451;42.630;23.382;2022-11-24T05:13:59;93510.25;;;7.41;100.00
12775;BME280;6451;42.630;23.382;2022-11-24T05:16:26;93500.66;;;7.28;100.00
12775;BME280;6451;42.630;23.382;2022-11-24T05:18:55;93530.22;;;7.37;100.00
12775;BME280;6451;42.630;23.382;2022-11-24T05:21:24;93531.84;;;7.41;100.00
12775;BME280;6451;42.630;23.382;2022-11-24T05:23:51;93537.53;;;7.36;100.00
12775;BME280;6451;42.630;23.382;2022-11-24T05:26:18;93398.16;;;6.40;100.00
12775;BME280;6451;42.630;23.382;2022-11-24T05:28:49;93540.28;;;7.24;100.00
12775;BME280;6451;42.630;23.382;2022-11-24T05:31:19;93336.72;;;5.78;100.00
12775;BME280;6451;42.630;23.382;2022-11-24T05:33:53;93454.88;;;6.44;100.00
12775;BME280;6451;42.630;23.382;2022-11-24T05:36:22;93448.34;;;6.45;100.00
12775;BME280;6451;42.630;23.382;2022-11-24T05:39:07;93286.94;;;5.19;100.00
12775;BME280;6451;42.630;23.382;2022-11-24T05:41:34;93537.56;;;6.96;100.00
12775;BME280;6451;42.630;23.382;2022-11-24T05:44:03;93550.47;;;7.03;100.00
12775;BME280;6451;42.630;23.382;2022-11-24T05:46:32;93551.81;;;7.09;100.00
12775;BME280;6451;42.630;23.382;2022-11-24T05:48:59;93521.03;;;6.97;100.00
12775;BME280;6451;42.630;23.382;2022-11-24T05:51:28;93508.59;;;6.93;100.00
12775;BME280;6451;42.630;23.382;2022-11-24T05:53:56;93546.53;;;7.28;100.00
12775;BME280;6451;42.630;23.382;2022-11-24T05:56:26;93546.94;;;7.14;100.00
12775;BME280;6451;42.630;23.382;2022-11-24T05:58:53;93548.53;;;7.15;100.00
12775;BME280;6451;42.630;23.382;2022-11-24T06:01:21;93555.13;;;7.18;100.00
12775;BME280;6451;42.630;23.382;2022-11-24T06:03:49;93556.25;;;7.17;100.00
12775;BME280;6451;42.630;23.382;2022-11-24T06:06:16;93531.34;;;7.08;100.00
12775;BME280;6451;42.630;23.382;2022-11-24T06:08:44;93540.44;;;7.15;100.00
12775;BME280;6451;42.630;23.382;2022-11-24T06:11:11;93572.34;;;7.41;100.00
12775;BME280;6451;42.630;23.382;2022-11-24T06:13:47;93564.34;;;7.17;100.00
12775;BME280;6451;42.630;23.382;2022-11-24T06:16:16;93566.69;;;7.18;100.00
12775;BME280;6451;42.630;23.382;2022-11-24T06:18:43;93572.41;;;7.29;100.00
12775;BME280;6451;42.630;23.382;2022-11-24T06:21:11;93566.22;;;7.29;100.00
12775;BME280;6451;42.630;23.382;2022-11-24T06:23:42;93326.69;;;6.03;100.00
12775;BME280;6451;42.630;23.382;2022-11-24T06:26:11;93293.59;;;5.90;100.00
12775;BME280;6451;42.630;23.382;2022-11-24T06:28:38;93290.03;;;5.86;100.00
12775;BME280;6451;42.630;23.382;2022-11-24T06:31:09;93327.69;;;6.10;100.00
12775;BME280;6451;42.630;23.382;2022-11-24T06:33:37;93279.72;;;6.00;100.00
12775;BME280;6451;42.630;23.382;2022-11-24T06:36:11;93514.91;;;7.72;100.00
12775;BME280;6451;42.630;23.382;2022-11-24T06:38:39;93487.06;;;7.68;100.00
12775;BME280;6451;42.630;23.382;2022-11-24T06:41:10;93594.19;;;8.27;100.00
12775;BME280;6451;42.630;23.382;2022-11-24T06:43:39;93507.53;;;7.25;100.00
12775;BME280;6451;42.630;23.382;2022-11-24T06:46:07;93372.13;;;6.45;100.00
12775;BME280;6451;42.630;23.382;2022-11-24T06:48:35;93573.97;;;7.74;100.00
12775;BME280;6451;42.630;23.382;2022-11-24T06:51:03;93415.22;;;6.73;100.00
12775;BME280;6451;42.630;23.382;2022-11-24T06:53:32;93614.69;;;7.97;100.00
12775;BME280;6451;42.630;23.382;2022-11-24T06:56:03;93456.03;;;6.87;100.00
12775;BME280;6451;42.630;23.382;2022-11-24T06:58:33;93622.59;;;7.90;100.00
12775;BME280;6451;42.630;23.382;2022-11-24T07:01:01;93629.94;;;8.05;100.00
12775;BME280;6451;42.630;23.382;2022-11-24T07:03:29;93461.00;;;6.85;100.00
12775;BME280;6451;42.630;23.382;2022-11-24T07:05:57;93376.97;;;5.99;100.00
12775;BME280;6451;42.630;23.382;2022-11-24T07:08:25;93645.09;;;7.66;100.00
12775;BME280;6451;42.630;23.382;2022-11-24T07:10:54;93647.47;;;7.67;100.00
12775;BME280;6451;42.630;23.382;2022-11-24T07:13:22;93484.63;;;6.76;100.00
12775;BME280;6451;42.630;23.382;2022-11-24T07:15:50;93650.91;;;7.80;100.00
12775;BME280;6451;42.630;23.382;2022-11-24T07:18:19;93407.34;;;6.11;100.00
12775;BME280;6451;42.630;23.382;2022-11-24T07:20:47;93665.28;;;7.84;100.00
12775;BME280;6451;42.630;23.382;2022-11-24T07:23:15;93675.91;;;7.77;100.00
12775;BME280;6451;42.630;23.382;2022-11-24T07:25:44;93664.00;;;7.94;100.00
12775;BME280;6451;42.630;23.382;2022-11-24T07:28:12;93669.16;;;7.99;100.00
12775;BME280;6451;42.630;23.382;2022-11-24T07:30:39;93604.41;;;7.59;100.00
12775;BME280;6451;42.630;23.382;2022-11-24T07:33:09;93681.97;;;8.02;100.00
12775;BME280;6451;42.630;23.382;2022-11-24T07:35:37;93676.91;;;8.00;100.00
12775;BME280;6451;42.630;23.382;2022-11-24T07:38:05;93610.28;;;7.61;100.00
12775;BME280;6451;42.630;23.382;2022-11-24T07:40:33;93595.28;;;7.63;100.00
12775;BME280;6451;42.630;23.382;2022-11-24T07:43:01;93489.16;;;6.87;100.00
12775;BME280;6451;42.630;23.382;2022-11-24T07:45:28;93686.97;;;8.16;100.00
12775;BME280;6451;42.630;23.382;2022-11-24T07:47:56;93685.03;;;8.16;100.00
12775;BME280;6451;42.630;23.382;2022-11-24T07:50:31;93625.72;;;7.76;100.00
12775;BME280;6451;42.630;23.382;2022-11-24T07:53:01;93677.47;;;8.06;100.00
12775;BME280;6451;42.630;23.382;2022-11-24T07:55:31;93502.72;;;6.75;100.00
12775;BME280;6451;42.630;23.382;2022-11-24T07:58:00;93703.22;;;8.03;100.00
12775;BME280;6451;42.630;23.382;2022-11-24T08:00:28;93617.16;;;7.30;100.00
12775;BME280;6451;42.630;23.382;2022-11-24T08:02:55;93536.88;;;6.71;100.00
12775;BME280;6451;42.630;23.382;2022-11-24T08:05:26;93710.50;;;7.87;100.00
12775;BME280;6451;42.630;23.382;2022-11-24T08:07:55;93718.53;;;7.84;100.00
12775;BME280;6451;42.630;23.382;2022-11-24T08:10:22;93708.50;;;7.84;100.00
12775;BME280;6451;42.630;23.382;2022-11-24T08:12:54;93725.50;;;7.85;100.00
12775;BME280;6451;42.630;23.382;2022-11-24T08:15:36;93606.66;;;7.01;100.00
12775;BME280;6451;42.630;23.382;2022-11-24T08:18:08;93644.44;;;6.88;100.00
12775;BME280;6451;42.630;23.382;2022-11-24T08:20:39;93746.31;;;7.44;100.00
12775;BME280;6451;42.630;23.382;2022-11-24T08:23:08;93558.03;;;5.96;100.00
12775;BME280;6451;42.630;23.382;2022-11-24T08:25:35;93636.06;;;6.53;100.00
12775;BME280;6451;42.630;23.382;2022-11-24T08:28:05;93755.09;;;7.04;100.00
12775;BME280;6451;42.630;23.382;2022-11-24T08:30:33;93764.09;;;6.96;100.00
12775;BME280;6451;42.630;23.382;2022-11-24T08:33:02;93750.06;;;6.78;100.00
12775;BME280;6451;42.630;23.382;2022-11-24T08:35:37;93442.25;;;4.77;100.00
12775;BME280;6451;42.630;23.382;2022-11-24T08:38:04;93780.59;;;6.82;100.00
12775;BME280;6451;42.630;23.382;2022-11-24T08:40:33;93691.97;;;6.32;100.00
12775;BME280;6451;42.630;23.382;2022-11-24T08:43:00;93610.00;;;5.63;100.00
12775;BME280;6451;42.630;23.382;2022-11-24T08:45:29;93686.31;;;6.12;100.00
12775;BME280;6451;42.630;23.382;2022-11-24T08:47:56;93766.09;;;6.50;100.00
12775;BME280;6451;42.630;23.382;2022-11-24T08:50:26;93793.50;;;6.52;100.00
12775;BME280;6451;42.630;23.382;2022-11-24T08:53:00;93790.38;;;6.62;100.00
12775;BME280;6451;42.630;23.382;2022-11-24T08:55:30;93725.19;;;6.24;100.00
12775;BME280;6451;42.630;23.382;2022-11-24T08:58:02;93696.19;;;6.08;100.00
12775;BME280;6451;42.630;23.382;2022-11-24T09:00:32;93775.97;;;6.46;100.00
12775;BME280;6451;42.630;23.382;2022-11-24T09:03:01;93742.91;;;6.25;100.00
12775;BME280;6451;42.630;23.382;2022-11-24T09:05:29;93800.81;;;6.52;100.00
12775;BME280;6451;42.630;23.382;2022-11-24T09:08:00;93799.63;;;6.40;100.00
12775;BME280;6451;42.630;23.382;2022-11-24T09:10:28;93742.06;;;6.12;100.00
12775;BME280;6451;42.630;23.382;2022-11-24T09:13:03;93631.28;;;5.23;100.00
12775;BME280;6451;42.630;23.382;2022-11-24T09:15:30;93813.09;;;6.40;100.00
12775;BME280;6451;42.630;23.382;2022-11-24T09:17:58;93703.22;;;5.68;100.00
12775;BME280;6451;42.630;23.382;2022-11-24T09:20:31;93673.56;;;5.55;100.00
12775;BME280;6451;42.630;23.382;2022-11-24T09:22:59;93807.47;;;6.33;100.00
12775;BME280;6451;42.630;23.382;2022-11-24T09:25:26;93816.13;;;6.39;100.00
12775;BME280;6451;42.630;23.382;2022-11-24T09:28:11;93809.81;;;6.35;100.00
12775;BME280;6451;42.630;23.382;2022-11-24T09:30:41;93813.81;;;6.50;100.00
12775;BME280;6451;42.630;23.382;2022-11-24T09:33:23;93806.66;;;6.54;100.00
12775;BME280;6451;42.630;23.382;2022-11-24T09:35:57;93675.19;;;5.81;100.00
12775;BME280;6451;42.630;23.382;2022-11-24T09:38:27;93609.50;;;5.49;100.00
12775;BME280;6451;42.630;23.382;2022-11-24T09:44:23;93609.88;;;5.26;100.00
12775;BME280;6451;42.630;23.382;2022-11-24T09:47:08;93586.19;;;5.20;100.00
12775;BME280;6451;42.630;23.382;2022-11-24T09:49:47;93477.63;;;4.46;100.00
12775;BME280;6451;42.630;23.382;2022-11-24T09:52:25;93611.69;;;5.35;100.00
12775;BME280;6451;42.630;23.382;2022-11-24T09:55:00;93788.66;;;6.58;100.00
12775;BME280;6451;42.630;23.382;2022-11-24T09:57:30;93691.88;;;5.74;100.00
12775;BME280;6451;42.630;23.382;2022-11-24T10:00:12;93558.50;;;4.86;100.00
12775;BME280;6451;42.630;23.382;2022-11-24T10:05:37;93625.63;;;5.70;100.00
12775;BME280;6451;42.630;23.382;2022-11-24T10:08:18;93600.34;;;5.29;100.00
12775;BME280;6451;42.630;23.382;2022-11-24T10:10:57;93554.78;;;4.99;100.00
12775;BME280;6451;42.630;23.382;2022-11-24T10:13:46;93599.63;;;4.87;100.00
12775;BME280;6451;42.630;23.382;2022-11-24T10:16:26;93532.50;;;4.57;100.00
12775;BME280;6451;42.630;23.382;2022-11-24T10:19:02;93804.78;;;6.33;100.00
12775;BME280;6451;42.630;23.382;2022-11-24T10:21:40;93618.03;;;4.97;100.00
12775;BME280;6451;42.630;23.382;2022-11-24T10:24:39;93819.47;;;6.24;100.00
12775;BME280;6451;42.630;23.382;2022-11-24T10:27:15;93498.50;;;4.19;100.00
12775;BME280;6451;42.630;23.382;2022-11-24T10:29:54;93548.88;;;4.43;100.00
12775;BME280;6451;42.630;23.382;2022-11-24T10:32:39;93740.41;;;5.66;100.00
12775;BME280;6451;42.630;23.382;2022-11-24T10:35:14;93630.16;;;4.82;100.00
12775;BME280;6451;42.630;23.382;2022-11-24T10:37:47;93697.97;;;5.09;100.00
12775;BME280;6451;42.630;23.382;2022-11-24T10:40:23;93814.53;;;6.05;100.00
12775;BME280;6451;42.630;23.382;2022-11-24T10:42:54;93726.13;;;5.32;100.00
12775;BME280;6451;42.630;23.382;2022-11-24T10:45:26;93543.63;;;3.97;100.00
12775;BME280;6451;42.630;23.382;2022-11-24T10:47:57;93802.31;;;5.66;100.00
12775;BME280;6451;42.630;23.382;2022-11-24T10:50:26;93835.81;;;5.77;100.00
12775;BME280;6451;42.630;23.382;2022-11-24T10:53:03;93503.59;;;3.92;100.00
12775;BME280;6451;42.630;23.382;2022-11-24T10:55:59;93808.91;;;5.98;100.00
12775;BME280;6451;42.630;23.382;2022-11-24T10:58:28;93578.69;;;4.51;100.00
12775;BME280;6451;42.630;23.382;2022-11-24T11:00:58;93674.09;;;5.28;100.00
12775;BME280;6451;42.630;23.382;2022-11-24T11:03:29;93639.59;;;4.88;100.00
12775;BME280;6451;42.630;23.382;2022-11-24T11:06:00;93664.91;;;5.29;100.00
12775;BME280;6451;42.630;23.382;2022-11-24T11:08:31;93808.94;;;6.31;100.00
12775;BME280;6451;42.630;23.382;2022-11-24T11:11:18;93789.06;;;6.35;100.00
12775;BME280;6451;42.630;23.382;2022-11-24T11:13:51;93768.63;;;6.22;100.00
12775;BME280;6451;42.630;23.382;2022-11-24T11:16:33;93703.44;;;5.96;100.00
12775;BME280;6451;42.630;23.382;2022-11-24T11:19:04;93760.78;;;6.29;100.00
12775;BME280;6451;42.630;23.382;2022-11-24T11:21:34;93705.41;;;6.20;100.00
12775;BME280;6451;42.630;23.382;2022-11-24T11:24:03;93808.38;;;6.95;100.00
12775;BME280;6451;42.630;23.382;2022-11-24T11:26:36;93714.59;;;6.19;100.00
12775;BME280;6451;42.630;23.382;2022-11-24T11:29:17;93633.63;;;5.57;100.00
12775;BME280;6451;42.630;23.382;2022-11-24T11:31:59;93788.56;;;6.66;100.00
12775;BME280;6451;42.630;23.382;2022-11-24T11:34:34;93822.72;;;6.75;100.00
12775;BME280;6451;42.630;23.382;2022-11-24T11:37:02;93695.25;;;5.71;100.00
12775;BME280;6451;42.630;23.382;2022-11-24T11:39:31;93672.13;;;5.37;100.00
12775;BME280;6451;42.630;23.382;2022-11-24T11:42:13;93492.78;;;4.21;100.00
12775;BME280;6451;42.630;23.382;2022-11-24T11:44:50;93742.78;;;6.21;100.00
12775;BME280;6451;42.630;23.382;2022-11-24T11:47:24;93527.53;;;4.68;100.00
12775;BME280;6451;42.630;23.382;2022-11-24T11:49:55;93837.94;;;6.46;100.00
12775;BME280;6451;42.630;23.382;2022-11-24T11:52:42;93820.91;;;6.21;100.00
12775;BME280;6451;42.630;23.382;2022-11-24T11:55:32;93821.03;;;5.83;100.00
12775;BME280;6451;42.630;23.382;2022-11-24T11:58:16;93697.13;;;5.17;100.00
12775;BME280;6451;42.630;23.382;2022-11-24T12:00:57;93744.91;;;5.62;100.00
12775;BME280;6451;42.630;23.382;2022-11-24T12:03:44;93751.78;;;5.71;100.00
12775;BME280;6451;42.630;23.382;2022-11-24T12:06:27;93823.63;;;6.00;100.00
12775;BME280;6451;42.630;23.382;2022-11-24T12:09:08;93825.28;;;5.93;100.00
12775;BME280;6451;42.630;23.382;2022-11-24T12:11:45;93809.94;;;5.64;100.00
12775;BME280;6451;42.630;23.382;2022-11-24T12:14:25;93793.31;;;5.41;100.00
12775;BME280;6451;42.630;23.382;2022-11-24T12:17:04;93849.84;;;5.82;100.00
12775;BME280;6451;42.630;23.382;2022-11-24T12:19:48;93831.66;;;5.58;100.00
12775;BME280;6451;42.630;23.382;2022-11-24T12:22:25;93850.00;;;5.86;100.00
12775;BME280;6451;42.630;23.382;2022-11-24T12:24:58;93838.41;;;5.94;100.00
12775;BME280;6451;42.630;23.382;2022-11-24T12:27:40;93839.25;;;6.07;100.00
12775;BME280;6451;42.630;23.382;2022-11-24T12:30:13;93848.84;;;6.17;100.00
12775;BME280;6451;42.630;23.382;2022-11-24T12:33:12;93853.53;;;6.20;100.00
12775;BME280;6451;42.630;23.382;2022-11-24T12:35:43;93848.16;;;6.20;100.00
12775;BME280;6451;42.630;23.382;2022-11-24T12:38:25;93854.94;;;6.26;100.00
12775;BME280;6451;42.630;23.382;2022-11-24T12:41:11;93818.03;;;6.05;100.00
12775;BME280;6451;42.630;23.382;2022-11-24T12:43:46;93816.25;;;6.09;100.00
12775;BME280;6451;42.630;23.382;2022-11-24T12:46:20;93809.94;;;6.05;100.00
12775;BME280;6451;42.630;23.382;2022-11-24T12:48:56;93859.91;;;6.36;100.00
12775;BME280;6451;42.630;23.382;2022-11-24T12:51:30;93733.91;;;5.67;100.00
12775;BME280;6451;42.630;23.382;2022-11-24T12:54:02;93828.06;;;6.50;100.00
12775;BME280;6451;42.630;23.382;2022-11-24T12:56:35;93840.88;;;6.53;100.00
12775;BME280;6451;42.630;23.382;2022-11-24T12:59:17;93864.28;;;6.61;100.00
12775;BME280;6451;42.630;23.382;2022-11-24T13:01:52;93837.97;;;6.58;100.00
12775;BME280;6451;42.630;23.382;2022-11-24T13:04:33;93838.34;;;6.81;100.00
12775;BME280;6451;42.630;23.382;2022-11-24T13:07:08;93833.50;;;6.75;100.00
12775;BME280;6451;42.630;23.382;2022-11-24T13:12:54;93839.13;;;6.69;100.00
12775;BME280;6451;42.630;23.382;2022-11-24T13:15:21;93814.78;;;6.33;100.00
12775;BME280;6451;42.630;23.382;2022-11-24T13:17:52;93735.03;;;5.66;100.00
12775;BME280;6451;42.630;23.382;2022-11-24T13:20:25;93857.25;;;6.48;100.00
12775;BME280;6451;42.630;23.382;2022-11-24T13:22:58;93846.84;;;6.26;100.00
12775;BME280;6451;42.630;23.382;2022-11-24T13:25:29;93844.44;;;6.12;100.00
12775;BME280;6451;42.630;23.382;2022-11-24T13:27:58;93860.13;;;6.31;100.00
12775;BME280;6451;42.630;23.382;2022-11-24T13:30:52;93870.69;;;6.36;100.00
12775;BME280;6451;42.630;23.382;2022-11-24T13:33:38;93827.78;;;5.89;100.00